createdAt,value
2023-01-01T00:00:25.533Z,53.93
2023-01-01T00:01:25.504Z,53.63
2023-01-01T00:02:25.545Z,53.93
2023-01-01T00:03:25.487Z,54.03
2023-01-01T00:04:25.449Z,54.23
2023-01-01T00:05:25.414Z,54.64
2023-01-01T00:06:25.427Z,54.64
2023-01-01T00:07:25.405Z,54.97
2023-01-01T00:08:25.420Z,54.64
2023-01-01T00:09:25.365Z,54.03
2023-01-01T00:10:25.377Z,54.74
2023-01-01T00:11:25.355Z,54.84
2023-01-01T00:12:25.375Z,54.86
2023-01-01T00:13:25.329Z,54.23
2023-01-01T00:14:25.361Z,55.07
2023-01-01T00:15:25.304Z,54.66
2023-01-01T00:16:25.328Z,54.86
2023-01-01T00:17:25.289Z,53.93
2023-01-01T00:18:25.318Z,53.83
2023-01-01T00:19:25.258Z,54.64
2023-01-01T00:20:30.010Z,54.03
2023-01-01T00:21:25.246Z,54.03
2023-01-01T00:22:53.452Z,54.33
2023-01-01T00:23:25.253Z,54.23
2023-01-01T00:24:25.228Z,54.46
2023-01-01T00:25:25.207Z,54.46
2023-01-01T00:26:29.425Z,54.03
2023-01-01T00:27:25.184Z,53.52
2023-01-01T00:28:25.182Z,53.72
2023-01-01T00:29:25.160Z,53.72
2023-01-01T00:30:25.196Z,53.93
2023-01-01T00:31:25.180Z,53.93
2023-01-01T00:32:25.204Z,53.72
2023-01-01T00:33:25.112Z,54.03
2023-01-01T00:34:25.151Z,53.42
2023-01-01T00:35:25.180Z,53.52
2023-01-01T00:36:25.112Z,53.72
2023-01-01T00:37:25.093Z,53.42
2023-01-01T00:38:25.075Z,53.52
2023-01-01T00:39:25.040Z,53.93
2023-01-01T00:40:25.082Z,54.23
2023-01-01T00:41:25.022Z,53.85
2023-01-01T00:42:25.041Z,54.05
2023-01-01T00:43:25.011Z,54.16
2023-01-01T00:44:25.011Z,54.36
2023-01-01T00:45:25.006Z,54.16
2023-01-01T00:46:25.041Z,53.96
2023-01-01T00:47:24.976Z,53.75
2023-01-01T00:48:24.943Z,53.52
2023-01-01T00:49:25.081Z,53.52
2023-01-01T00:50:24.940Z,53.63
2023-01-01T00:51:24.946Z,53.63
2023-01-01T00:52:24.904Z,53.63
2023-01-01T00:53:24.926Z,54.26
2023-01-01T00:54:24.881Z,53.55
2023-01-01T00:55:24.894Z,53.42
2023-01-01T00:56:24.905Z,53.22
2023-01-01T00:57:24.889Z,53.42
2023-01-01T00:58:24.837Z,53.83
2023-01-01T00:59:28.781Z,53.85
2023-01-01T01:00:24.817Z,53.85
2023-01-01T01:01:24.924Z,53.75
2023-01-01T01:02:25.000Z,54.16
2023-01-01T01:03:24.836Z,53.75
2023-01-01T01:04:24.789Z,53.45
2023-01-01T01:05:24.794Z,53.65
2023-01-01T01:06:24.769Z,53.85
2023-01-01T01:07:24.785Z,53.34
2023-01-01T01:08:30.441Z,53.75
2023-01-01T01:09:24.755Z,53.55
2023-01-01T01:10:24.702Z,53.14
2023-01-01T01:11:24.723Z,53.25
2023-01-01T01:12:24.689Z,53.65
2023-01-01T01:13:24.707Z,53.58
2023-01-01T01:14:24.667Z,53.25
2023-01-01T01:15:24.694Z,53.45
2023-01-01T01:16:24.709Z,53.78
2023-01-01T01:17:24.652Z,53.78
2023-01-01T01:18:24.640Z,53.58
2023-01-01T01:19:24.628Z,52.94
2023-01-01T01:20:24.596Z,52.74
2023-01-01T01:21:24.636Z,52.84
2023-01-01T01:22:28.695Z,52.84
2023-01-01T01:23:24.583Z,52.44
2023-01-01T01:24:24.577Z,52.23
2023-01-01T01:25:24.614Z,52.13
2023-01-01T01:26:24.549Z,52.33
2023-01-01T01:27:24.549Z,52.44
2023-01-01T01:28:24.520Z,52.44
2023-01-01T01:29:24.552Z,53.14
2023-01-01T01:30:24.501Z,52.66
2023-01-01T01:31:24.554Z,52.56
2023-01-01T01:32:24.471Z,52.15
2023-01-01T01:33:24.477Z,51.62
2023-01-01T01:34:28.128Z,51.53
2023-01-01T01:35:24.464Z,51.42
2023-01-01T01:36:24.432Z,51.32
2023-01-01T01:37:24.453Z,51.32
2023-01-01T01:38:24.398Z,51.12
2023-01-01T01:39:24.426Z,51.53
2023-01-01T01:40:24.400Z,51.02
2023-01-01T01:41:29.008Z,50.71
2023-01-01T01:42:24.373Z,50.41
2023-01-01T01:43:24.371Z,50.61
2023-01-01T01:44:24.339Z,50.82
2023-01-01T01:45:29.778Z,50.92
2023-01-01T01:46:24.379Z,50.51
2023-01-01T01:47:24.326Z,50.84
2023-01-01T01:48:24.348Z,50.74
2023-01-01T01:49:24.310Z,50.63
2023-01-01T01:50:24.274Z,50.11
2023-01-01T01:51:24.411Z,50.21
2023-01-01T01:52:24.259Z,50.84
2023-01-01T01:53:24.259Z,50.54
2023-01-01T01:54:24.232Z,50.23
2023-01-01T01:55:24.266Z,50.13
2023-01-01T01:56:24.222Z,49.83
2023-01-01T01:57:24.255Z,50.03
2023-01-01T01:58:24.185Z,51.04
2023-01-01T01:59:24.219Z,50.23
2023-01-01T02:00:24.164Z,49.73
2023-01-01T02:01:24.253Z,50.34
2023-01-01T02:02:24.292Z,50.03
2023-01-01T02:03:24.172Z,50.74
2023-01-01T02:04:24.129Z,50.54
2023-01-01T02:05:24.132Z,51.57
2023-01-01T02:06:24.104Z,50.43
2023-01-01T02:07:24.106Z,50.03
2023-01-01T02:08:24.099Z,50.34
2023-01-01T02:09:24.088Z,50.34
2023-01-01T02:10:24.052Z,49.83
2023-01-01T02:11:24.072Z,50.94
2023-01-01T02:12:24.044Z,50.43
2023-01-01T02:13:24.090Z,50.63
2023-01-01T02:14:24.020Z,50.54
2023-01-01T02:15:24.021Z,50.43
2023-01-01T02:16:23.999Z,50.13
2023-01-01T02:17:24.000Z,49.83
2023-01-01T02:18:23.974Z,50.03
2023-01-01T02:19:24.016Z,49.73
2023-01-01T02:20:23.949Z,50.03
2023-01-01T02:21:23.958Z,50.26
2023-01-01T02:22:23.948Z,50.56
2023-01-01T02:23:23.952Z,50.46
2023-01-01T02:24:23.933Z,50.86
2023-01-01T02:25:23.913Z,50.86
2023-01-01T02:26:23.882Z,50.96
2023-01-01T02:27:23.890Z,49.62
2023-01-01T02:28:23.867Z,50.34
2023-01-01T02:29:23.890Z,50.66
2023-01-01T02:30:23.847Z,50.76
2023-01-01T02:31:23.952Z,50.46
2023-01-01T02:32:23.838Z,50.26
2023-01-01T02:33:23.833Z,50.15
2023-01-01T02:34:23.796Z,50.15
2023-01-01T02:35:23.860Z,50.15
2023-01-01T02:36:23.787Z,49.95
2023-01-01T02:37:23.784Z,50.35
2023-01-01T02:38:23.755Z,50.05
2023-01-01T02:39:23.766Z,50.03
2023-01-01T02:40:23.734Z,49.62
2023-01-01T02:41:23.754Z,50.23
2023-01-01T02:42:23.716Z,50.34
2023-01-01T02:43:25.181Z,50.35
2023-01-01T02:44:23.687Z,50.35
2023-01-01T02:45:23.701Z,49.85
2023-01-01T02:46:54.352Z,49.73
2023-01-01T02:47:55.354Z,50.23
2023-01-01T02:48:55.323Z,50.05
2023-01-01T02:49:55.329Z,50.26
2023-01-01T02:50:55.300Z,49.85
2023-01-01T02:51:55.327Z,50.46
2023-01-01T02:52:55.310Z,49.95
2023-01-01T02:53:55.293Z,50.56
2023-01-01T02:54:55.265Z,50.46
2023-01-01T02:55:55.294Z,50.68
2023-01-01T02:56:55.263Z,50.05
2023-01-01T02:57:55.254Z,49.85
2023-01-01T02:58:55.217Z,50.05
2023-01-01T02:59:55.258Z,50.15
2023-01-01T03:00:55.210Z,50.46
2023-01-01T03:01:55.405Z,50.26
2023-01-01T03:02:55.334Z,50.35
2023-01-01T03:03:55.192Z,50.18
2023-01-01T03:04:55.144Z,50.28
2023-01-01T03:05:55.155Z,50.59
2023-01-01T03:06:55.175Z,50.46
2023-01-01T03:07:55.156Z,49.34
2023-01-01T03:08:55.139Z,49.65
2023-01-01T03:09:55.134Z,49.85
2023-01-01T03:10:55.118Z,50.46
2023-01-01T03:11:55.107Z,50.89
2023-01-01T03:12:55.078Z,50.15
2023-01-01T03:13:55.079Z,50.38
2023-01-01T03:14:55.073Z,50.48
2023-01-01T03:15:55.135Z,50.89
2023-01-01T03:16:55.032Z,50.68
2023-01-01T03:17:55.049Z,50.56
2023-01-01T03:18:54.998Z,50.26
2023-01-01T03:19:55.089Z,50.56
2023-01-01T03:20:54.987Z,50.26
2023-01-01T03:21:54.993Z,50.26
2023-01-01T03:22:54.964Z,50.59
2023-01-01T03:23:55.118Z,50.79
2023-01-01T03:24:54.942Z,50.79
2023-01-01T03:25:54.985Z,50.99
2023-01-01T03:26:54.910Z,50.89
2023-01-01T03:27:54.953Z,50.99
2023-01-01T03:28:54.914Z,50.76
2023-01-01T03:29:54.907Z,50.35
2023-01-01T03:30:54.975Z,49.52
2023-01-01T03:31:54.879Z,50.46
2023-01-01T03:32:54.867Z,50.56
2023-01-01T03:33:54.845Z,51.39
2023-01-01T03:34:54.847Z,50.89
2023-01-01T03:35:54.816Z,50.56
2023-01-01T03:36:54.886Z,51.07
2023-01-01T03:37:54.811Z,51.29
2023-01-01T03:38:54.809Z,50.89
2023-01-01T03:39:54.792Z,51.29
2023-01-01T03:40:55.024Z,51.29
2023-01-01T03:41:54.749Z,51.70
2023-01-01T03:42:55.048Z,52.23
2023-01-01T03:43:54.778Z,51.50
2023-01-01T03:44:54.826Z,51.80
2023-01-01T03:45:54.746Z,52.00
2023-01-01T03:46:54.758Z,52.11
2023-01-01T03:47:54.727Z,51.70
2023-01-01T03:49:02.088Z,51.50
2023-01-01T03:49:54.688Z,51.29
2023-01-01T03:50:54.673Z,51.80
2023-01-01T03:51:54.730Z,51.09
2023-01-01T03:52:54.661Z,50.96
2023-01-01T03:53:54.647Z,51.17
2023-01-01T03:54:58.698Z,51.60
2023-01-01T03:55:54.601Z,51.50
2023-01-01T03:56:54.612Z,51.70
2023-01-01T03:57:54.589Z,51.50
2023-01-01T03:58:54.601Z,51.80
2023-01-01T03:59:54.568Z,52.00
2023-01-01T04:00:54.579Z,51.29
2023-01-01T04:01:54.635Z,51.70
2023-01-01T04:02:54.598Z,52.00
2023-01-01T04:03:54.553Z,51.90
2023-01-01T04:04:54.546Z,52.00
2023-01-01T04:05:54.499Z,51.90
2023-01-01T04:06:54.503Z,51.80
2023-01-01T04:07:54.488Z,52.41
2023-01-01T04:08:54.498Z,52.11
2023-01-01T04:09:54.488Z,52.11
2023-01-01T04:10:54.460Z,53.14
2023-01-01T04:11:54.448Z,52.84
2023-01-01T04:12:54.437Z,51.90
2023-01-01T04:13:54.421Z,52.31
2023-01-01T04:14:54.419Z,52.92
2023-01-01T04:15:54.513Z,53.04
2023-01-01T04:16:54.393Z,52.11
2023-01-01T04:17:54.364Z,52.00
2023-01-01T04:18:54.378Z,52.51
2023-01-01T04:19:55.351Z,52.84
2023-01-01T04:20:54.375Z,52.84
2023-01-01T04:21:54.318Z,52.44
2023-01-01T04:22:54.330Z,52.84
2023-01-01T04:23:54.298Z,52.51
2023-01-01T04:24:54.328Z,52.94
2023-01-01T04:25:54.295Z,52.20
2023-01-01T04:26:54.354Z,52.51
2023-01-01T04:27:54.254Z,52.61
2023-01-01T04:28:54.290Z,52.81
2023-01-01T04:29:54.223Z,52.84
2023-01-01T04:31:25.597Z,52.84
2023-01-01T04:32:26.632Z,52.84
2023-01-01T04:33:26.598Z,52.84
2023-01-01T04:34:26.623Z,53.25
2023-01-01T04:35:26.565Z,53.14
2023-01-01T04:36:26.592Z,53.65
2023-01-01T04:37:26.632Z,53.25
2023-01-01T04:38:26.568Z,53.45
2023-01-01T04:39:26.543Z,53.34
2023-01-01T04:40:26.550Z,53.04
2023-01-01T04:41:26.536Z,52.61
2023-01-01T04:42:26.528Z,53.25
2023-01-01T04:43:26.513Z,52.84
2023-01-01T04:44:26.497Z,53.04
2023-01-01T04:45:26.574Z,53.45
2023-01-01T04:46:26.492Z,53.14
2023-01-01T04:47:26.472Z,53.04
2023-01-01T04:48:26.491Z,53.14
2023-01-01T04:49:26.411Z,53.45
2023-01-01T04:50:26.463Z,53.25
2023-01-01T04:51:26.440Z,53.34
2023-01-01T04:52:26.408Z,53.96
2023-01-01T04:53:26.378Z,53.75
2023-01-01T04:54:26.439Z,52.51
2023-01-01T04:55:26.362Z,53.12
2023-01-01T04:56:26.372Z,53.12
2023-01-01T04:57:26.345Z,53.14
2023-01-01T04:58:26.376Z,53.34
2023-01-01T04:59:26.345Z,53.25
2023-01-01T05:00:26.347Z,53.55
2023-01-01T05:01:26.644Z,53.65
2023-01-01T05:02:26.514Z,53.75
2023-01-01T05:03:26.297Z,53.96
2023-01-01T05:04:26.319Z,53.96
2023-01-01T05:05:26.255Z,53.75
2023-01-01T05:06:26.276Z,54.26
2023-01-01T05:07:26.249Z,54.28
2023-01-01T05:08:26.251Z,54.39
2023-01-01T05:09:26.211Z,54.05
2023-01-01T05:10:26.266Z,54.46
2023-01-01T05:11:26.199Z,54.49
2023-01-01T05:12:26.206Z,54.49
2023-01-01T05:13:26.192Z,54.49
2023-01-01T05:14:26.172Z,54.59
2023-01-01T05:15:26.145Z,54.46
2023-01-01T05:16:26.213Z,54.36
2023-01-01T05:17:26.141Z,54.79
2023-01-01T05:18:26.150Z,54.77
2023-01-01T05:19:26.112Z,55.10
2023-01-01T05:20:26.116Z,55.10
2023-01-01T05:21:26.218Z,54.69
2023-01-01T05:22:26.100Z,54.69
2023-01-01T05:23:26.067Z,55.30
2023-01-01T05:24:26.081Z,54.90
2023-01-01T05:25:26.036Z,54.97
2023-01-01T05:26:26.082Z,54.79
2023-01-01T05:27:26.035Z,54.99
2023-01-01T05:28:26.045Z,54.46
2023-01-01T05:29:26.049Z,54.36
2023-01-01T05:30:26.259Z,54.46
2023-01-01T05:31:26.035Z,54.77
2023-01-01T05:32:26.052Z,54.66
2023-01-01T05:33:25.969Z,54.66
2023-01-01T05:34:25.995Z,55.27
2023-01-01T05:35:26.695Z,55.20
2023-01-01T05:36:25.969Z,55.60
2023-01-01T05:37:25.956Z,55.40
2023-01-01T05:38:25.934Z,55.71
2023-01-01T05:39:25.920Z,55.40
2023-01-01T05:40:25.927Z,55.80
2023-01-01T05:41:25.884Z,56.11
2023-01-01T05:42:25.899Z,56.11
2023-01-01T05:43:25.857Z,55.80
2023-01-01T05:44:25.893Z,56.11
2023-01-01T05:45:25.864Z,55.80
2023-01-01T05:46:25.833Z,55.91
2023-01-01T05:47:29.636Z,55.91
2023-01-01T05:48:25.858Z,56.62
2023-01-01T05:49:25.806Z,56.52
2023-01-01T05:50:25.815Z,56.44
2023-01-01T05:51:25.783Z,56.65
2023-01-01T05:52:26.989Z,56.52
2023-01-01T05:53:25.751Z,56.74
2023-01-01T05:54:26.196Z,56.74
2023-01-01T05:55:25.718Z,56.85
2023-01-01T05:56:25.988Z,56.54
2023-01-01T05:57:25.726Z,56.31
2023-01-01T05:58:25.713Z,56.95
2023-01-01T05:59:25.728Z,56.41
2023-01-01T06:00:25.965Z,56.41
2023-01-01T06:01:25.733Z,56.52
2023-01-01T06:02:25.774Z,56.31
2023-01-01T06:03:25.630Z,56.82
2023-01-01T06:04:25.709Z,56.85
2023-01-01T06:05:25.640Z,56.74
2023-01-01T06:06:25.642Z,56.62
2023-01-01T06:07:25.605Z,57.15
2023-01-01T06:08:25.620Z,57.05
2023-01-01T06:09:25.610Z,57.66
2023-01-01T06:10:25.627Z,57.15
2023-01-01T06:11:25.580Z,57.66
2023-01-01T06:12:25.538Z,57.25
2023-01-01T06:13:25.547Z,56.74
2023-01-01T06:14:25.549Z,56.92
2023-01-01T06:15:25.703Z,57.05
2023-01-01T06:16:25.591Z,57.05
2023-01-01T06:17:25.527Z,56.95
2023-01-01T06:18:25.481Z,57.15
2023-01-01T06:19:25.516Z,57.25
2023-01-01T06:20:25.459Z,57.46
2023-01-01T06:21:25.523Z,57.05
2023-01-01T06:22:25.429Z,57.05
2023-01-01T06:23:25.488Z,56.85
2023-01-01T06:24:25.420Z,56.95
2023-01-01T06:25:25.431Z,56.62
2023-01-01T06:26:25.440Z,57.25
2023-01-01T06:27:25.429Z,57.25
2023-01-01T06:28:25.374Z,57.15
2023-01-01T06:29:25.397Z,57.05
2023-01-01T06:30:25.353Z,57.05
2023-01-01T06:31:25.370Z,57.35
2023-01-01T06:32:25.342Z,57.25
2023-01-01T06:33:25.369Z,56.85
2023-01-01T06:34:25.310Z,56.72
2023-01-01T06:35:25.332Z,57.05
2023-01-01T06:36:25.289Z,57.66
2023-01-01T06:37:25.303Z,58.06
2023-01-01T06:38:25.297Z,57.76
2023-01-01T06:39:25.286Z,57.97
2023-01-01T06:40:25.251Z,57.76
2023-01-01T06:41:25.263Z,57.86
2023-01-01T06:42:30.408Z,57.46
2023-01-01T06:43:25.292Z,57.46
2023-01-01T06:44:25.194Z,57.97
2023-01-01T06:45:25.211Z,58.37
2023-01-01T06:46:25.292Z,58.17
2023-01-01T06:47:25.184Z,58.37
2023-01-01T06:48:25.163Z,59.79
2023-01-01T06:49:25.182Z,60.50
2023-01-01T06:50:25.141Z,60.22
2023-01-01T06:51:25.145Z,60.33
2023-01-01T06:52:25.195Z,60.83
2023-01-01T06:53:25.178Z,60.63
2023-01-01T06:54:25.117Z,59.82
2023-01-01T06:55:25.123Z,59.62
2023-01-01T06:56:25.093Z,59.41
2023-01-01T06:57:25.092Z,59.18
2023-01-01T06:58:25.075Z,59.72
2023-01-01T06:59:25.062Z,59.82
2023-01-01T07:00:25.068Z,59.62
2023-01-01T07:01:25.158Z,59.62
2023-01-01T07:02:25.199Z,58.88
2023-01-01T07:03:25.088Z,59.69
2023-01-01T07:04:24.992Z,59.31
2023-01-01T07:05:25.028Z,59.08
2023-01-01T07:06:24.987Z,59.41
2023-01-01T07:07:24.996Z,59.82
2023-01-01T07:08:24.955Z,60.02
2023-01-01T07:09:24.963Z,59.21
2023-01-01T07:10:24.919Z,59.21
2023-01-01T07:11:24.942Z,59.18
2023-01-01T07:12:24.901Z,58.88
2023-01-01T07:13:24.921Z,59.41
2023-01-01T07:14:24.889Z,59.52
2023-01-01T07:15:24.908Z,60.02
2023-01-01T07:16:25.008Z,59.52
2023-01-01T07:17:24.881Z,58.37
2023-01-01T07:18:24.873Z,58.88
2023-01-01T07:19:24.859Z,58.37
2023-01-01T07:20:24.822Z,58.47
2023-01-01T07:21:28.699Z,58.88
2023-01-01T07:22:24.841Z,58.67
2023-01-01T07:23:24.813Z,58.98
2023-01-01T07:24:24.797Z,59.18
2023-01-01T07:25:24.807Z,59.08
2023-01-01T07:26:24.791Z,59.31
2023-01-01T07:27:24.795Z,59.11
2023-01-01T07:28:24.731Z,59.21
2023-01-01T07:29:24.761Z,59.11
2023-01-01T07:30:24.718Z,59.72
2023-01-01T07:31:24.874Z,59.72
2023-01-01T07:32:24.725Z,60.02
2023-01-01T07:33:24.728Z,59.62
2023-01-01T07:34:24.697Z,60.22
2023-01-01T07:35:24.701Z,60.13
2023-01-01T07:36:24.653Z,60.33
2023-01-01T07:37:24.664Z,60.22
2023-01-01T07:38:24.684Z,60.33
2023-01-01T07:39:24.659Z,59.92
2023-01-01T07:40:24.646Z,60.22
2023-01-01T07:41:24.616Z,60.33
2023-01-01T07:42:24.590Z,60.02
2023-01-01T07:43:24.610Z,60.33
2023-01-01T07:44:24.641Z,60.43
2023-01-01T07:45:24.592Z,60.94
2023-01-01T07:46:24.765Z,60.63
2023-01-01T07:47:24.567Z,60.43
2023-01-01T07:48:24.523Z,60.63
2023-01-01T07:49:24.589Z,60.83
2023-01-01T07:50:24.513Z,60.74
2023-01-01T07:51:24.555Z,61.44
2023-01-01T07:52:24.514Z,61.44
2023-01-01T07:53:24.490Z,61.24
2023-01-01T07:54:24.486Z,61.44
2023-01-01T07:55:24.526Z,62.18
2023-01-01T07:56:24.435Z,61.95
2023-01-01T07:57:24.465Z,62.46
2023-01-01T07:58:24.441Z,62.05
2023-01-01T07:59:24.424Z,62.56
2023-01-01T08:00:24.426Z,62.26
2023-01-01T08:01:24.496Z,62.56
2023-01-01T08:02:24.499Z,62.66
2023-01-01T08:03:24.461Z,62.90
2023-01-01T08:04:24.373Z,62.56
2023-01-01T08:05:26.959Z,62.59
2023-01-01T08:06:24.370Z,62.87
2023-01-01T08:07:24.339Z,62.16
2023-01-01T08:08:24.307Z,62.66
2023-01-01T08:09:24.333Z,62.90
2023-01-01T08:10:24.332Z,62.26
2023-01-01T08:11:24.330Z,63.07
2023-01-01T08:12:24.293Z,63.00
2023-01-01T08:13:24.321Z,63.51
2023-01-01T08:14:24.258Z,63.71
2023-01-01T08:15:24.255Z,64.22
2023-01-01T08:16:24.279Z,63.81
2023-01-01T08:17:24.262Z,63.81
2023-01-01T08:18:24.225Z,64.01
2023-01-01T08:19:24.268Z,64.62
2023-01-01T08:20:24.185Z,63.71
2023-01-01T08:21:24.196Z,63.91
2023-01-01T08:22:24.193Z,64.32
2023-01-01T08:23:24.200Z,64.12
2023-01-01T08:24:24.142Z,64.83
2023-01-01T08:25:24.159Z,64.93
2023-01-01T08:26:24.131Z,64.83
2023-01-01T08:27:24.131Z,64.83
2023-01-01T08:28:24.122Z,64.83
2023-01-01T08:29:24.110Z,65.03
2023-01-01T08:30:24.076Z,64.73
2023-01-01T08:31:24.132Z,64.32
2023-01-01T08:32:24.075Z,63.78
2023-01-01T08:33:24.104Z,64.09
2023-01-01T08:34:24.042Z,64.32
2023-01-01T08:35:24.058Z,63.78
2023-01-01T08:36:24.038Z,64.22
2023-01-01T08:37:24.045Z,64.32
2023-01-01T08:38:24.004Z,64.42
2023-01-01T08:39:24.039Z,64.29
2023-01-01T08:40:24.000Z,64.39
2023-01-01T08:41:23.990Z,65.10
2023-01-01T08:42:23.959Z,65.61
2023-01-01T08:43:23.982Z,65.94
2023-01-01T08:44:23.946Z,67.57
2023-01-01T08:45:23.946Z,67.27
2023-01-01T08:46:23.985Z,67.60
2023-01-01T08:47:23.965Z,68.52
2023-01-01T08:48:30.384Z,67.91
2023-01-01T08:49:23.901Z,68.01
2023-01-01T08:50:23.886Z,67.40
2023-01-01T08:51:23.881Z,66.86
2023-01-01T08:52:23.889Z,66.66
2023-01-01T08:53:23.864Z,65.84
2023-01-01T08:54:23.821Z,65.94
2023-01-01T08:55:23.870Z,66.55
2023-01-01T08:56:23.847Z,66.46
2023-01-01T08:57:23.814Z,66.55
2023-01-01T08:58:23.785Z,66.35
2023-01-01T08:59:23.811Z,66.86
2023-01-01T09:00:23.903Z,66.46
2023-01-01T09:01:23.978Z,66.35
2023-01-01T09:02:23.942Z,66.25
2023-01-01T09:03:23.949Z,66.35
2023-01-01T09:04:23.726Z,66.55
2023-01-01T09:05:23.803Z,66.76
2023-01-01T09:06:23.710Z,65.94
2023-01-01T09:07:23.755Z,66.46
2023-01-01T09:08:23.713Z,66.25
2023-01-01T09:09:29.298Z,66.99
2023-01-01T09:10:23.665Z,66.49
2023-01-01T09:11:23.717Z,65.84
2023-01-01T09:12:23.677Z,66.05
2023-01-01T09:13:23.667Z,66.25
2023-01-01T09:14:23.616Z,65.64
2023-01-01T09:15:23.666Z,65.64
2023-01-01T09:16:23.677Z,66.05
2023-01-01T09:17:23.663Z,66.25
2023-01-01T09:18:23.598Z,66.05
2023-01-01T09:19:23.596Z,66.15
2023-01-01T09:20:23.589Z,66.05
2023-01-01T09:21:23.560Z,66.05
2023-01-01T09:22:23.582Z,66.69
2023-01-01T09:23:23.537Z,66.38
2023-01-01T09:24:23.518Z,66.28
2023-01-01T09:25:23.536Z,66.46
2023-01-01T09:26:23.523Z,65.94
2023-01-01T09:27:23.499Z,65.64
2023-01-01T09:28:25.848Z,65.13
2023-01-01T09:29:23.482Z,65.64
2023-01-01T09:30:23.721Z,65.84
2023-01-01T09:31:23.620Z,66.15
2023-01-01T09:32:23.422Z,65.74
2023-01-01T09:33:23.491Z,65.54
2023-01-01T09:34:23.491Z,65.23
2023-01-01T09:35:23.447Z,65.13
2023-01-01T09:36:23.389Z,65.23
2023-01-01T09:37:23.406Z,65.64
2023-01-01T09:38:23.396Z,65.64
2023-01-01T09:39:23.422Z,66.05
2023-01-01T09:40:23.354Z,65.84
2023-01-01T09:41:23.361Z,66.25
2023-01-01T09:42:23.347Z,66.15
2023-01-01T09:43:23.330Z,65.54
2023-01-01T09:44:23.301Z,65.54
2023-01-01T09:45:23.352Z,65.54
2023-01-01T09:46:29.550Z,65.54
2023-01-01T09:47:23.319Z,65.03
2023-01-01T09:48:23.269Z,66.15
2023-01-01T09:49:23.263Z,65.84
2023-01-01T09:50:23.272Z,65.44
2023-01-01T09:51:23.242Z,65.44
2023-01-01T09:52:23.214Z,66.15
2023-01-01T09:53:23.232Z,65.33
2023-01-01T09:54:23.199Z,65.44
2023-01-01T09:55:23.204Z,65.33
2023-01-01T09:56:24.249Z,66.15
2023-01-01T09:57:23.187Z,65.84
2023-01-01T09:58:23.179Z,65.84
2023-01-01T09:59:23.186Z,65.54
2023-01-01T10:00:23.149Z,66.05
2023-01-01T10:01:23.267Z,66.46
2023-01-01T10:02:23.110Z,65.94
2023-01-01T10:03:23.142Z,65.84
2023-01-01T10:04:23.139Z,65.84
2023-01-01T10:05:23.069Z,65.64
2023-01-01T10:06:23.099Z,66.25
2023-01-01T10:07:23.099Z,65.94
2023-01-01T10:08:23.757Z,65.94
2023-01-01T10:09:23.059Z,66.46
2023-01-01T10:10:23.020Z,66.46
2023-01-01T10:11:23.049Z,66.25
2023-01-01T10:12:23.035Z,65.94
2023-01-01T10:13:23.014Z,66.76
2023-01-01T10:14:22.979Z,66.25
2023-01-01T10:15:23.031Z,65.84
2023-01-01T10:16:25.095Z,65.71
2023-01-01T10:17:22.980Z,65.91
2023-01-01T10:18:22.975Z,65.91
2023-01-01T10:19:22.960Z,66.32
2023-01-01T10:20:22.926Z,66.02
2023-01-01T10:21:22.929Z,65.71
2023-01-01T10:22:22.929Z,66.02
2023-01-01T10:23:22.940Z,65.51
2023-01-01T10:24:22.890Z,65.51
2023-01-01T10:25:22.893Z,65.51
2023-01-01T10:26:22.852Z,65.30
2023-01-01T10:27:22.866Z,65.51
2023-01-01T10:28:22.863Z,66.22
2023-01-01T10:29:22.860Z,65.71
2023-01-01T10:30:22.931Z,65.41
2023-01-01T10:31:22.872Z,65.91
2023-01-01T10:32:22.818Z,65.41
2023-01-01T10:33:22.788Z,65.91
2023-01-01T10:34:25.988Z,66.02
2023-01-01T10:35:28.330Z,65.81
2023-01-01T10:36:22.814Z,66.52
2023-01-01T10:37:22.754Z,66.22
2023-01-01T10:38:22.757Z,66.42
2023-01-01T10:39:22.711Z,66.42
2023-01-01T10:40:22.774Z,65.91
2023-01-01T10:41:22.710Z,66.42
2023-01-01T10:42:22.716Z,66.12
2023-01-01T10:43:22.675Z,66.72
2023-01-01T10:44:22.694Z,65.91
2023-01-01T10:45:22.706Z,66.02
2023-01-01T10:46:29.421Z,65.91
2023-01-01T10:47:22.641Z,65.81
2023-01-01T10:48:22.669Z,65.41
2023-01-01T10:49:22.641Z,66.12
2023-01-01T10:50:22.644Z,65.81
2023-01-01T10:51:22.619Z,66.32
2023-01-01T10:52:22.595Z,65.71
2023-01-01T10:53:22.576Z,65.71
2023-01-01T10:54:27.861Z,65.61
2023-01-01T10:55:22.563Z,65.58
2023-01-01T10:56:22.606Z,65.78
2023-01-01T10:57:22.525Z,65.48
2023-01-01T10:58:22.545Z,65.58
2023-01-01T10:59:22.507Z,65.58
2023-01-01T11:00:22.571Z,65.58
2023-01-01T11:01:22.606Z,65.99
2023-01-01T11:02:22.804Z,65.88
2023-01-01T11:03:22.563Z,66.19
2023-01-01T11:04:22.483Z,66.49
2023-01-01T11:05:22.871Z,65.48
2023-01-01T11:06:22.465Z,65.58
2023-01-01T11:07:22.442Z,65.78
2023-01-01T11:08:22.442Z,65.58
2023-01-01T11:09:22.401Z,66.19
2023-01-01T11:10:22.432Z,65.58
2023-01-01T11:11:22.402Z,65.58
2023-01-01T11:13:02.458Z,65.37
2023-01-01T11:13:22.387Z,65.88
2023-01-01T11:14:22.359Z,66.08
2023-01-01T11:15:22.349Z,65.99
2023-01-01T11:16:22.428Z,66.08
2023-01-01T11:17:22.308Z,65.99
2023-01-01T11:18:22.375Z,66.39
2023-01-01T11:19:22.300Z,66.19
2023-01-01T11:20:22.332Z,66.39
2023-01-01T11:21:22.289Z,66.49
2023-01-01T11:22:22.296Z,66.08
2023-01-01T11:23:22.254Z,66.29
2023-01-01T11:24:22.302Z,66.08
2023-01-01T11:25:22.264Z,66.08
2023-01-01T11:26:22.270Z,66.08
2023-01-01T11:27:22.219Z,66.19
2023-01-01T11:28:22.247Z,66.39
2023-01-01T11:29:22.216Z,66.19
2023-01-01T11:30:22.200Z,66.60
2023-01-01T11:31:22.206Z,66.90
2023-01-01T11:32:22.185Z,66.60
2023-01-01T11:33:22.156Z,66.69
2023-01-01T11:34:22.153Z,67.10
2023-01-01T11:35:22.149Z,66.80
2023-01-01T11:36:22.178Z,66.93
2023-01-01T11:37:22.120Z,66.69
2023-01-01T11:38:29.269Z,67.10
2023-01-01T11:39:22.122Z,67.24
2023-01-01T11:40:22.114Z,67.13
2023-01-01T11:41:22.068Z,67.03
2023-01-01T11:42:22.075Z,67.10
2023-01-01T11:43:22.038Z,67.30
2023-01-01T11:44:22.066Z,67.10
2023-01-01T11:45:22.042Z,67.10
2023-01-01T11:46:22.083Z,67.41
2023-01-01T11:47:22.006Z,67.20
2023-01-01T11:48:22.040Z,67.30
2023-01-01T11:49:21.973Z,67.50
2023-01-01T11:50:21.994Z,67.10
2023-01-01T11:51:21.988Z,67.10
2023-01-01T11:52:21.976Z,68.01
2023-01-01T11:53:21.933Z,67.10
2023-01-01T11:54:21.942Z,68.05
2023-01-01T11:55:21.916Z,67.24
2023-01-01T11:56:21.923Z,67.33
2023-01-01T11:57:21.900Z,67.84
2023-01-01T11:58:21.910Z,67.54
2023-01-01T11:59:21.886Z,68.05
2023-01-01T12:00:21.877Z,67.84
2023-01-01T12:01:21.882Z,67.74
2023-01-01T12:02:22.000Z,67.13
2023-01-01T12:03:21.877Z,67.50
2023-01-01T12:04:21.890Z,67.64
2023-01-01T12:05:21.819Z,67.54
2023-01-01T12:06:21.826Z,68.35
2023-01-01T12:07:21.827Z,67.33
2023-01-01T12:08:21.814Z,67.20
2023-01-01T12:09:21.794Z,67.74
2023-01-01T12:10:21.865Z,67.24
2023-01-01T12:11:21.783Z,67.24
2023-01-01T12:12:21.779Z,67.44
2023-01-01T12:13:21.738Z,67.33
2023-01-01T12:14:21.733Z,67.44
2023-01-01T12:15:21.727Z,68.05
2023-01-01T12:16:21.764Z,68.35
2023-01-01T12:17:21.683Z,68.05
2023-01-01T12:18:21.698Z,68.55
2023-01-01T12:19:21.814Z,68.15
2023-01-01T12:20:21.670Z,68.35
2023-01-01T12:21:21.635Z,68.55
2023-01-01T12:22:21.650Z,68.05
2023-01-01T12:23:21.607Z,68.05
2023-01-01T12:24:21.663Z,68.05
2023-01-01T12:25:21.634Z,68.05
2023-01-01T12:26:21.639Z,67.84
2023-01-01T12:27:21.616Z,68.15
2023-01-01T12:28:21.611Z,68.15
2023-01-01T12:29:21.569Z,67.84
2023-01-01T12:30:21.596Z,68.45
2023-01-01T12:31:21.585Z,68.45
2023-01-01T12:32:21.536Z,68.35
2023-01-01T12:33:21.535Z,68.25
2023-01-01T12:34:21.629Z,68.35
2023-01-01T12:35:21.532Z,68.55
2023-01-01T12:36:21.528Z,69.06
2023-01-01T12:37:21.510Z,68.99
2023-01-01T12:38:21.472Z,68.79
2023-01-01T12:39:21.439Z,68.69
2023-01-01T12:40:24.778Z,68.59
2023-01-01T12:41:21.447Z,69.30
2023-01-01T12:42:21.594Z,68.49
2023-01-01T12:43:21.414Z,68.49
2023-01-01T12:44:21.412Z,68.99
2023-01-01T12:45:24.440Z,68.35
2023-01-01T12:46:21.415Z,68.96
2023-01-01T12:47:21.408Z,68.55
2023-01-01T12:48:21.408Z,68.96
2023-01-01T12:49:21.338Z,68.45
2023-01-01T12:50:21.400Z,68.55
2023-01-01T12:51:21.363Z,68.55
2023-01-01T12:52:21.394Z,68.86
2023-01-01T12:53:21.311Z,69.17